createdAt,value
2023-04-30T00:01:14.008Z,8.40
2023-04-30T00:03:40.980Z,8.40
2023-04-30T00:06:08.106Z,8.30
2023-04-30T00:08:37.913Z,8.40
2023-04-30T00:11:05.092Z,8.40
2023-04-30T00:13:32.075Z,8.40
2023-04-30T00:15:59.082Z,8.40
2023-04-30T00:18:26.030Z,8.30
2023-04-30T00:20:53.519Z,8.30
2023-04-30T00:23:20.587Z,8.30
2023-04-30T00:25:47.496Z,8.30
2023-04-30T00:28:14.488Z,8.30
2023-04-30T00:30:41.539Z,8.30
2023-04-30T00:33:08.631Z,8.20
2023-04-30T00:35:35.657Z,8.10
2023-04-30T00:38:02.655Z,8.00
2023-04-30T00:40:29.692Z,8.00
2023-04-30T00:42:56.798Z,7.80
2023-04-30T00:45:23.704Z,7.50
2023-04-30T00:47:50.898Z,7.40
2023-04-30T00:50:18.049Z,7.50
2023-04-30T00:52:45.487Z,7.60
2023-04-30T00:55:13.421Z,7.60
2023-04-30T00:57:43.285Z,7.60
2023-04-30T01:00:11.442Z,7.60
2023-04-30T01:02:38.844Z,7.40
2023-04-30T01:05:07.259Z,7.20
2023-04-30T01:07:36.569Z,7.10
2023-04-30T01:10:03.778Z,6.90
2023-04-30T01:13:04.228Z,7.00
2023-04-30T01:15:47.941Z,7.10
2023-04-30T01:18:44.306Z,7.20
2023-04-30T01:21:13.989Z,7.20
2023-04-30T01:23:55.957Z,7.10
2023-04-30T01:26:54.297Z,7.00
2023-04-30T01:29:23.986Z,7.00
2023-04-30T01:31:51.146Z,7.00
2023-04-30T01:34:18.204Z,7.00
2023-04-30T01:37:12.850Z,7.00
2023-04-30T01:40:09.987Z,7.00
2023-04-30T01:42:49.216Z,6.90
2023-04-30T01:45:43.008Z,6.80
2023-04-30T01:48:43.663Z,6.80
2023-04-30T01:51:34.011Z,6.80
2023-04-30T01:54:24.568Z,6.90
2023-04-30T01:57:07.266Z,6.90
2023-04-30T01:59:36.494Z,6.90
2023-04-30T02:02:04.282Z,6.90
2023-04-30T02:04:31.271Z,6.90
2023-04-30T02:06:58.914Z,6.90
2023-04-30T02:09:26.080Z,6.80
2023-04-30T02:11:52.940Z,6.80
2023-04-30T02:14:20.591Z,6.70
2023-04-30T02:16:47.625Z,6.70
2023-04-30T02:19:14.523Z,6.70
2023-04-30T02:21:41.443Z,6.70
2023-04-30T02:24:08.723Z,6.70
2023-04-30T02:26:35.616Z,6.60
2023-04-30T02:29:02.696Z,6.60
2023-04-30T02:31:29.795Z,6.60
2023-04-30T02:33:56.786Z,6.50
2023-04-30T02:36:23.707Z,6.40
2023-04-30T02:38:50.620Z,6.40
2023-04-30T02:41:17.580Z,6.40
2023-04-30T02:43:44.503Z,6.40
2023-04-30T02:46:11.565Z,6.40
2023-04-30T02:48:38.599Z,6.30
2023-04-30T02:51:05.857Z,6.20
2023-04-30T02:53:32.818Z,6.10
2023-04-30T02:55:59.792Z,6.20
2023-04-30T02:58:26.721Z,6.20
2023-04-30T03:00:53.830Z,6.20
2023-04-30T03:03:21.656Z,6.20
2023-04-30T03:05:48.661Z,6.10
2023-04-30T03:08:16.633Z,6.10
2023-04-30T03:10:44.304Z,6.20
2023-04-30T03:13:11.279Z,6.20
2023-04-30T03:15:38.318Z,6.10
2023-04-30T03:18:05.639Z,6.00
2023-04-30T03:20:32.645Z,6.00
2023-04-30T03:22:59.687Z,5.90
2023-04-30T03:25:26.771Z,5.90
2023-04-30T03:27:53.779Z,5.80
2023-04-30T03:30:20.852Z,5.80
2023-04-30T03:32:47.904Z,5.70
2023-04-30T03:35:16.365Z,5.60
2023-04-30T03:37:43.294Z,5.30
2023-04-30T03:40:11.780Z,5.20
2023-04-30T03:42:38.826Z,5.20
2023-04-30T03:45:06.412Z,5.20
2023-04-30T03:47:33.886Z,5.30
2023-04-30T03:50:01.222Z,5.40
2023-04-30T03:52:28.217Z,5.40
2023-04-30T03:54:55.310Z,5.40
2023-04-30T03:57:22.289Z,5.40
2023-04-30T03:59:51.435Z,5.50
2023-04-30T04:02:18.597Z,5.50
2023-04-30T04:04:45.785Z,5.50
2023-04-30T04:07:12.964Z,5.50
2023-04-30T04:09:40.061Z,5.50
2023-04-30T04:12:07.558Z,5.50
2023-04-30T04:14:34.700Z,5.50
2023-04-30T04:17:05.488Z,5.40
2023-04-30T04:19:32.925Z,5.50
2023-04-30T04:21:59.905Z,5.40
2023-04-30T04:24:27.180Z,5.40
2023-04-30T04:26:54.230Z,5.30
2023-04-30T04:29:21.235Z,5.30
2023-04-30T04:31:49.299Z,5.30
2023-04-30T04:34:17.054Z,5.30
2023-04-30T04:36:44.070Z,5.40
2023-04-30T04:39:11.833Z,5.50
2023-04-30T04:41:38.696Z,5.50
2023-04-30T04:44:06.543Z,5.50
2023-04-30T04:46:34.806Z,5.60
2023-04-30T04:49:02.198Z,5.70
2023-04-30T04:51:29.493Z,5.70
2023-04-30T04:53:56.408Z,5.80
2023-04-30T04:56:23.527Z,5.90
2023-04-30T04:58:50.447Z,5.90
2023-04-30T05:01:17.520Z,6.00
2023-04-30T05:03:47.715Z,6.10
2023-04-30T05:06:14.811Z,6.30
2023-04-30T05:08:42.567Z,6.40
2023-04-30T05:11:09.707Z,6.50
2023-04-30T05:13:36.746Z,6.60
2023-04-30T05:16:04.374Z,6.70
2023-04-30T05:18:31.428Z,6.80
2023-04-30T05:20:58.430Z,6.90
2023-04-30T05:23:25.897Z,6.90
2023-04-30T05:25:53.428Z,7.00
2023-04-30T05:28:20.346Z,7.10
2023-04-30T05:30:47.302Z,7.30
2023-04-30T05:33:14.474Z,7.40
2023-04-30T05:35:41.918Z,7.60
2023-04-30T05:38:08.924Z,7.70
2023-04-30T05:40:37.267Z,7.80
2023-04-30T05:43:04.347Z,7.90
2023-04-30T05:45:31.444Z,7.90
2023-04-30T05:47:58.404Z,7.90
2023-04-30T05:50:25.399Z,7.90
2023-04-30T05:52:52.315Z,8.00
2023-04-30T05:55:19.241Z,7.90
2023-04-30T05:57:46.165Z,7.90
2023-04-30T06:00:13.936Z,8.00
2023-04-30T06:02:41.248Z,8.10
2023-04-30T06:05:09.066Z,8.30
2023-04-30T06:07:36.256Z,8.40
2023-04-30T06:10:03.927Z,8.50
2023-04-30T06:12:31.668Z,8.60
2023-04-30T06:14:58.910Z,8.60
2023-04-30T06:17:26.099Z,8.70
2023-04-30T06:19:53.388Z,8.90
2023-04-30T06:22:20.475Z,9.00
2023-04-30T06:24:47.343Z,9.20
2023-04-30T06:27:14.265Z,9.30
2023-04-30T06:29:41.224Z,9.40
2023-04-30T06:32:08.639Z,9.50
2023-04-30T06:34:36.414Z,9.60
2023-04-30T06:37:03.540Z,9.70
2023-04-30T06:39:30.784Z,9.80
2023-04-30T06:41:58.890Z,9.90
2023-04-30T06:44:28.197Z,10.00
2023-04-30T06:46:55.394Z,10.00
2023-04-30T06:49:22.991Z,10.00
2023-04-30T06:51:50.015Z,10.10
2023-04-30T06:54:16.985Z,10.30
2023-04-30T06:56:44.668Z,10.20
2023-04-30T06:59:12.270Z,10.20
2023-04-30T07:01:39.366Z,10.20
2023-04-30T07:04:06.550Z,10.40
2023-04-30T07:06:34.207Z,10.50
2023-04-30T07:09:02.273Z,10.80
2023-04-30T07:11:29.212Z,11.00
2023-04-30T07:13:56.817Z,11.20
2023-04-30T07:16:26.236Z,11.40
2023-04-30T07:18:53.268Z,11.60
2023-04-30T07:21:20.225Z,11.70
2023-04-30T07:23:48.620Z,11.90
2023-04-30T07:26:15.904Z,12.00
2023-04-30T07:28:42.916Z,12.20
2023-04-30T07:31:09.923Z,12.40
2023-04-30T07:33:36.923Z,12.40
2023-04-30T07:36:03.965Z,12.60
2023-04-30T07:38:31.087Z,12.60
2023-04-30T07:40:57.949Z,12.50
2023-04-30T07:43:25.028Z,12.30
2023-04-30T07:45:53.439Z,12.00
2023-04-30T07:48:21.384Z,11.90
2023-04-30T07:50:50.549Z,11.90
2023-04-30T07:53:18.338Z,12.10
2023-04-30T07:55:45.379Z,12.10
2023-04-30T07:58:15.287Z,12.20
2023-04-30T08:00:42.269Z,12.20
2023-04-30T08:03:09.381Z,12.50
2023-04-30T08:05:36.592Z,12.90
2023-04-30T08:08:04.051Z,13.20
2023-04-30T08:10:31.993Z,13.30
2023-04-30T08:12:58.888Z,13.10
2023-04-30T08:15:27.556Z,12.80
2023-04-30T08:17:55.277Z,12.60
2023-04-30T08:20:23.569Z,12.60
2023-04-30T08:22:51.170Z,12.70
2023-04-30T08:25:18.126Z,13.00
2023-04-30T08:27:45.080Z,13.30
2023-04-30T08:30:12.266Z,13.60
2023-04-30T08:32:39.240Z,13.70
2023-04-30T08:35:07.502Z,13.70
2023-04-30T08:37:34.881Z,13.70
2023-04-30T08:40:01.757Z,13.90
2023-04-30T08:42:36.598Z,14.00
2023-04-30T08:45:04.936Z,14.00
2023-04-30T08:47:31.956Z,14.10
2023-04-30T08:49:58.846Z,14.20
2023-04-30T08:52:28.770Z,14.00
2023-04-30T08:54:58.018Z,14.00
2023-04-30T08:57:25.180Z,14.20
2023-04-30T08:59:52.067Z,14.30
2023-04-30T09:02:19.019Z,14.40
2023-04-30T09:04:46.771Z,14.30
2023-04-30T09:07:14.528Z,14.20
2023-04-30T09:09:41.579Z,14.40
2023-04-30T09:12:19.762Z,14.70
2023-04-30T09:15:03.569Z,14.60
2023-04-30T09:17:31.485Z,14.50
2023-04-30T09:20:14.083Z,14.30
2023-04-30T09:22:42.566Z,14.40
2023-04-30T09:25:11.350Z,14.70
2023-04-30T09:27:38.248Z,15.10
2023-04-30T09:30:06.330Z,15.50
2023-04-30T09:32:33.287Z,15.60
2023-04-30T09:35:00.635Z,15.80
2023-04-30T09:37:41.103Z,16.00
2023-04-30T09:40:09.001Z,16.20
2023-04-30T09:42:35.989Z,16.10
2023-04-30T09:45:05.369Z,16.20
2023-04-30T09:47:33.510Z,16.30
2023-04-30T09:50:01.013Z,16.40
2023-04-30T09:52:27.951Z,16.20
2023-04-30T09:54:54.894Z,16.00
2023-04-30T09:57:24.353Z,16.00
2023-04-30T09:59:53.409Z,15.90
2023-04-30T10:02:23.923Z,16.10
2023-04-30T10:04:58.405Z,16.20
2023-04-30T10:07:32.196Z,16.30
2023-04-30T10:10:11.717Z,16.50
2023-04-30T10:12:52.280Z,16.90
2023-04-30T10:15:26.705Z,17.20
2023-04-30T10:18:03.707Z,17.20
2023-04-30T10:20:35.444Z,17.40
2023-04-30T10:23:02.672Z,17.40
2023-04-30T10:25:30.180Z,17.50
2023-04-30T10:27:57.211Z,17.50
2023-04-30T10:30:24.350Z,17.60
2023-04-30T10:33:15.689Z,17.90
2023-04-30T10:36:06.615Z,17.90
2023-04-30T10:38:34.646Z,17.80
2023-04-30T10:41:02.519Z,17.70
2023-04-30T10:43:34.971Z,17.60
2023-04-30T10:46:02.854Z,18.00
2023-04-30T10:48:31.184Z,18.10
2023-04-30T10:50:59.790Z,18.40
2023-04-30T10:53:31.274Z,18.50
2023-04-30T10:56:06.501Z,18.50
2023-04-30T10:58:39.582Z,18.50
2023-04-30T11:01:13.737Z,18.70
2023-04-30T11:03:43.361Z,19.00
2023-04-30T11:06:14.690Z,19.00
2023-04-30T11:08:46.773Z,19.10
2023-04-30T11:11:23.798Z,19.20
2023-04-30T11:14:01.702Z,19.20
2023-04-30T11:16:34.859Z,19.30
2023-04-30T11:19:11.992Z,19.40
2023-04-30T11:21:45.062Z,19.40
2023-04-30T11:24:13.300Z,19.50
2023-04-30T11:27:08.854Z,19.50
2023-04-30T11:29:36.582Z,19.30
2023-04-30T11:32:05.635Z,19.30
2023-04-30T11:34:35.025Z,19.00
2023-04-30T11:37:03.416Z,18.80
2023-04-30T11:39:35.820Z,19.00
2023-04-30T11:42:03.185Z,19.00
2023-04-30T11:44:30.191Z,18.90
2023-04-30T11:46:57.338Z,19.00
2023-04-30T11:49:24.281Z,19.30
2023-04-30T11:51:52.336Z,19.50
2023-04-30T11:54:19.863Z,19.60
2023-04-30T11:56:48.584Z,19.60
2023-04-30T11:59:17.243Z,19.00
2023-04-30T12:01:44.699Z,19.10
2023-04-30T12:04:12.198Z,19.10
2023-04-30T12:06:39.799Z,19.00
2023-04-30T12:09:09.293Z,19.10
2023-04-30T12:11:36.666Z,19.40
2023-04-30T12:14:04.349Z,19.70
2023-04-30T12:16:49.308Z,19.70
2023-04-30T12:19:21.027Z,19.70
2023-04-30T12:21:49.074Z,19.90
2023-04-30T12:24:18.323Z,20.00
2023-04-30T12:26:46.008Z,20.40
2023-04-30T12:29:18.097Z,20.60
2023-04-30T12:31:46.080Z,20.80
2023-04-30T12:34:15.029Z,21.10
2023-04-30T12:36:45.335Z,21.20
2023-04-30T12:39:16.018Z,20.90
2023-04-30T12:41:45.872Z,20.60
2023-04-30T12:44:25.257Z,20.60
2023-04-30T12:46:57.144Z,20.50
2023-04-30T12:49:33.842Z,20.50
2023-04-30T12:52:04.764Z,20.70
2023-04-30T12:54:35.046Z,20.90
2023-04-30T12:57:07.615Z,21.10
2023-04-30T13:00:00.948Z,21.20
2023-04-30T13:02:32.050Z,21.20
2023-04-30T13:04:59.426Z,21.10
2023-04-30T13:07:26.456Z,20.90
2023-04-30T13:09:53.706Z,20.90
2023-04-30T13:12:20.826Z,21.10
2023-04-30T13:14:47.795Z,21.10
2023-04-30T13:17:14.823Z,20.80
2023-04-30T13:19:41.816Z,20.60
2023-04-30T13:22:08.705Z,20.80
2023-04-30T13:24:35.764Z,21.10
2023-04-30T13:27:04.032Z,21.10
2023-04-30T13:29:31.811Z,21.10
2023-04-30T13:31:59.248Z,21.20
2023-04-30T13:34:29.393Z,20.80
2023-04-30T13:36:56.483Z,20.40
2023-04-30T13:39:23.409Z,20.30
2023-04-30T13:41:50.575Z,20.50
2023-04-30T13:44:17.481Z,20.80
2023-04-30T13:46:45.533Z,21.10
2023-04-30T13:49:12.480Z,21.10
2023-04-30T13:51:39.439Z,21.20
2023-04-30T13:54:06.444Z,21.00
2023-04-30T13:56:33.403Z,20.80
2023-04-30T13:59:00.480Z,20.60
2023-04-30T14:01:27.575Z,20.60
2023-04-30T14:03:55.400Z,20.70
2023-04-30T14:06:23.000Z,20.60
2023-04-30T14:08:49.926Z,20.50
2023-04-30T14:11:16.916Z,20.50
2023-04-30T14:13:43.927Z,20.50
2023-04-30T14:16:10.865Z,20.70
2023-04-30T14:18:37.822Z,20.70
2023-04-30T14:21:04.747Z,20.70
2023-04-30T14:23:33.903Z,20.70
2023-04-30T14:26:00.992Z,20.70
2023-04-30T14:28:27.906Z,20.80
2023-04-30T14:30:54.915Z,20.70
2023-04-30T14:33:21.816Z,20.60
2023-04-30T14:35:48.812Z,20.60
2023-04-30T14:38:15.992Z,20.60
2023-04-30T14:40:44.922Z,20.80
2023-04-30T14:43:11.950Z,20.80
2023-04-30T14:45:40.014Z,20.80
2023-04-30T14:48:07.352Z,20.70
2023-04-30T14:50:34.264Z,20.70
2023-04-30T14:53:01.496Z,20.70
2023-04-30T14:55:28.485Z,20.70
2023-04-30T14:57:55.979Z,20.80
2023-04-30T15:00:23.040Z,20.70
2023-04-30T15:02:50.005Z,20.60
2023-04-30T15:05:17.143Z,20.60
2023-04-30T15:07:44.055Z,20.80
2023-04-30T15:10:11.322Z,20.80
2023-04-30T15:12:39.508Z,20.50
2023-04-30T15:15:07.944Z,20.40
2023-04-30T15:17:36.904Z,20.60
2023-04-30T15:20:05.489Z,20.50
2023-04-30T15:22:33.418Z,20.50
2023-04-30T15:25:00.504Z,20.40
2023-04-30T15:27:28.502Z,20.50
2023-04-30T15:29:55.836Z,20.60
2023-04-30T15:32:22.995Z,20.70
2023-04-30T15:34:49.902Z,20.80
2023-04-30T15:37:16.791Z,20.90
2023-04-30T15:39:43.761Z,20.80
2023-04-30T15:42:10.708Z,20.80
2023-04-30T15:44:37.590Z,20.80
2023-04-30T15:47:04.623Z,20.90
2023-04-30T15:49:31.621Z,20.90
2023-04-30T15:52:00.593Z,20.80
2023-04-30T15:54:27.762Z,20.80
2023-04-30T15:56:54.737Z,20.80
2023-04-30T15:59:22.146Z,20.70
2023-04-30T16:01:49.124Z,20.60
2023-04-30T16:04:16.172Z,20.50
2023-04-30T16:06:43.174Z,20.40
2023-04-30T16:09:10.888Z,20.30
2023-04-30T16:11:41.490Z,20.20
2023-04-30T16:14:08.632Z,20.10
2023-04-30T16:16:35.584Z,20.20
2023-04-30T16:19:03.282Z,20.20
2023-04-30T16:21:34.559Z,20.10
2023-04-30T16:24:02.816Z,20.10
2023-04-30T16:26:30.588Z,20.00
2023-04-30T16:28:57.486Z,19.80
2023-04-30T16:31:24.404Z,19.70
2023-04-30T16:33:51.344Z,19.60
2023-04-30T16:36:18.398Z,19.60
2023-04-30T16:38:46.435Z,19.60
2023-04-30T16:41:15.942Z,19.60
2023-04-30T16:43:43.795Z,19.60
2023-04-30T16:46:10.994Z,19.60
2023-04-30T16:48:38.325Z,19.50
2023-04-30T16:51:06.577Z,19.40
2023-04-30T16:53:33.978Z,19.30
2023-04-30T16:56:01.054Z,19.30
2023-04-30T16:58:30.278Z,19.20
2023-04-30T17:00:57.381Z,19.10
2023-04-30T17:03:25.045Z,19.00
2023-04-30T17:05:53.438Z,19.00
2023-04-30T17:08:20.879Z,19.00
2023-04-30T17:10:47.828Z,19.00
2023-04-30T17:13:15.014Z,18.60
2023-04-30T17:15:43.282Z,18.60
2023-04-30T17:18:11.864Z,18.50
2023-04-30T17:20:39.220Z,18.60
2023-04-30T17:23:06.526Z,18.50
2023-04-30T17:25:33.705Z,18.50
2023-04-30T17:28:01.700Z,18.30
2023-04-30T17:30:29.272Z,18.30
2023-04-30T17:32:56.653Z,18.40
2023-04-30T17:35:23.694Z,18.40
2023-04-30T17:37:50.642Z,18.40
2023-04-30T17:40:17.607Z,18.50
2023-04-30T17:42:44.510Z,18.40
2023-04-30T17:45:11.811Z,18.40
2023-04-30T17:47:38.880Z,18.30
2023-04-30T17:50:08.537Z,18.20
2023-04-30T17:52:38.479Z,18.20
2023-04-30T17:55:09.334Z,18.20
2023-04-30T17:57:37.860Z,18.10
2023-04-30T18:00:07.160Z,18.10
2023-04-30T18:02:44.155Z,18.10
2023-04-30T18:05:11.691Z,18.00
2023-04-30T18:07:38.594Z,17.90
2023-04-30T18:10:06.294Z,17.90
2023-04-30T18:12:33.260Z,17.90
2023-04-30T18:15:00.629Z,17.80
2023-04-30T18:17:27.631Z,17.80
2023-04-30T18:19:55.051Z,17.70
2023-04-30T18:22:22.151Z,17.70
2023-04-30T18:24:49.151Z,17.60
2023-04-30T18:27:16.132Z,17.50
2023-04-30T18:29:44.106Z,17.50
2023-04-30T18:32:12.735Z,17.40
2023-04-30T18:34:39.786Z,17.20
2023-04-30T18:37:06.890Z,17.10
2023-04-30T18:39:33.861Z,17.10
2023-04-30T18:42:03.353Z,17.00
2023-04-30T18:44:32.083Z,17.00
2023-04-30T18:46:59.059Z,16.90
2023-04-30T18:49:26.047Z,16.90
2023-04-30T18:51:55.104Z,16.80
2023-04-30T18:54:22.349Z,16.80
2023-04-30T18:56:49.597Z,16.80
2023-04-30T18:59:16.889Z,16.70
2023-04-30T19:01:44.029Z,16.70
2023-04-30T19:04:13.790Z,16.70
2023-04-30T19:06:40.754Z,16.60
2023-04-30T19:09:09.278Z,16.60
2023-04-30T19:11:36.392Z,16.50
2023-04-30T19:14:03.805Z,16.40
2023-04-30T19:16:30.778Z,16.40
2023-04-30T19:18:58.103Z,16.40
2023-04-30T19:21:25.657Z,16.30
2023-04-30T19:23:52.676Z,16.30
2023-04-30T19:26:20.196Z,16.10
2023-04-30T19:28:47.661Z,15.90
2023-04-30T19:31:14.806Z,15.70
2023-04-30T19:33:42.938Z,15.60
2023-04-30T19:36:10.540Z,15.50
2023-04-30T19:38:37.510Z,15.40
2023-04-30T19:41:04.406Z,15.30
2023-04-30T19:43:31.512Z,15.10
2023-04-30T19:45:59.333Z,15.00
2023-04-30T19:48:26.876Z,15.00
2023-04-30T19:50:54.577Z,14.90
2023-04-30T19:53:22.925Z,14.80
2023-04-30T19:55:51.115Z,14.80
2023-04-30T19:58:18.127Z,14.70
2023-04-30T20:00:45.813Z,14.60
2023-04-30T20:03:14.719Z,14.50
2023-04-30T20:05:42.221Z,14.50
2023-04-30T20:08:09.602Z,14.50
2023-04-30T20:10:38.371Z,14.40
2023-04-30T20:13:06.906Z,14.40
2023-04-30T20:15:34.080Z,14.30
2023-04-30T20:18:01.584Z,14.30
2023-04-30T20:20:29.624Z,14.20
2023-04-30T20:22:56.820Z,14.10
2023-04-30T20:25:34.163Z,14.20
2023-04-30T20:28:01.089Z,14.40
2023-04-30T20:30:29.007Z,14.50
2023-04-30T20:32:56.087Z,14.50
2023-04-30T20:35:23.912Z,14.40
2023-04-30T20:37:54.556Z,14.40
2023-04-30T20:40:21.943Z,14.30
2023-04-30T20:42:48.862Z,14.30
2023-04-30T20:45:17.899Z,14.30
2023-04-30T20:47:44.868Z,14.20
2023-04-30T20:50:16.494Z,14.20
2023-04-30T20:52:43.947Z,14.20
2023-04-30T20:55:11.542Z,14.20
2023-04-30T20:57:38.666Z,14.10
2023-04-30T21:00:06.758Z,14.20
2023-04-30T21:02:34.192Z,14.20
2023-04-30T21:05:05.997Z,14.20
2023-04-30T21:07:47.325Z,14.20
2023-04-30T21:10:14.419Z,14.10
2023-04-30T21:12:41.896Z,13.90
2023-04-30T21:15:09.740Z,13.80
2023-04-30T21:17:36.978Z,13.70
2023-04-30T21:20:04.240Z,13.60
2023-04-30T21:22:31.743Z,13.50
2023-04-30T21:24:58.683Z,13.50
2023-04-30T21:27:25.649Z,13.50
2023-04-30T21:29:52.735Z,13.40
2023-04-30T21:32:19.694Z,13.40
2023-04-30T21:34:46.617Z,13.40
2023-04-30T21:37:15.699Z,13.30
2023-04-30T21:39:44.067Z,13.30
2023-04-30T21:42:10.957Z,13.20
2023-04-30T21:44:37.963Z,13.30
2023-04-30T21:47:08.164Z,13.30
2023-04-30T21:49:35.726Z,13.20
2023-04-30T21:52:04.443Z,13.20
2023-04-30T21:54:31.364Z,13.20
2023-04-30T21:56:58.358Z,13.10
2023-04-30T21:59:25.401Z,13.20
2023-04-30T22:01:52.538Z,13.20
2023-04-30T22:04:21.548Z,13.40
2023-04-30T22:06:48.810Z,13.40
2023-04-30T22:09:15.792Z,13.40
2023-04-30T22:11:42.694Z,13.30
2023-04-30T22:14:09.582Z,13.20
2023-04-30T22:16:36.666Z,13.10
2023-04-30T22:19:09.791Z,13.10
2023-04-30T22:21:36.785Z,13.20
2023-04-30T22:24:03.840Z,13.20
2023-04-30T22:26:31.599Z,13.20
2023-04-30T22:28:58.773Z,13.10
2023-04-30T22:31:26.262Z,13.00
2023-04-30T22:33:53.243Z,13.00
2023-04-30T22:36:20.337Z,12.90
2023-04-30T22:38:47.424Z,12.90
2023-04-30T22:41:14.496Z,12.90
2023-04-30T22:43:41.809Z,12.90
2023-04-30T22:46:08.748Z,12.90
2023-04-30T22:48:35.687Z,12.80
2023-04-30T22:51:03.260Z,12.60
2023-04-30T22:53:30.321Z,12.60
2023-04-30T22:55:57.679Z,12.70
2023-04-30T22:58:24.564Z,12.60
2023-04-30T23:00:51.639Z,12.60
2023-04-30T23:03:18.588Z,12.50
2023-04-30T23:05:49.239Z,12.40
2023-04-30T23:08:16.184Z,12.30
2023-04-30T23:10:46.095Z,12.20
2023-04-30T23:13:13.036Z,12.10
2023-04-30T23:15:39.960Z,11.80
2023-04-30T23:18:06.923Z,11.60
2023-04-30T23:20:33.967Z,11.50
2023-04-30T23:23:00.857Z,11.50
2023-04-30T23:25:27.742Z,11.50
2023-04-30T23:27:54.700Z,11.40
2023-04-30T23:30:22.308Z,11.40
2023-04-30T23:32:49.193Z,11.30
2023-04-30T23:35:16.270Z,11.20
2023-04-30T23:37:43.140Z,11.30
2023-04-30T23:40:10.782Z,11.20
2023-04-30T23:42:37.676Z,11.20
2023-04-30T23:45:05.844Z,11.00
2023-04-30T23:47:36.680Z,11.00
2023-04-30T23:50:04.282Z,11.10
2023-04-30T23:52:31.882Z,11.20
2023-04-30T23:54:58.865Z,11.20
2023-04-30T23:57:27.511Z,11.20
2023-04-30T23:59:55.206Z,11.20
